createdAt,value
2019-03-24T00:00:29.452Z,99.90
2019-03-24T00:03:00.997Z,99.90
2019-03-24T00:05:32.360Z,99.90
2019-03-24T00:08:03.511Z,99.90
2019-03-24T00:10:34.591Z,99.90
2019-03-24T00:13:06.114Z,99.90
2019-03-24T00:15:37.254Z,99.80
2019-03-24T00:18:08.538Z,99.50
2019-03-24T00:20:39.655Z,99.40
2019-03-24T00:23:10.847Z,99.30
2019-03-24T00:25:41.870Z,99.20
2019-03-24T00:28:12.856Z,99.20
2019-03-24T00:30:44.000Z,99.20
2019-03-24T00:33:14.997Z,99.30
2019-03-24T00:35:47.152Z,99.30
2019-03-24T00:38:18.232Z,99.20
2019-03-24T00:40:49.262Z,99.20
2019-03-24T00:43:20.411Z,99.30
2019-03-24T00:45:51.471Z,99.20
2019-03-24T00:48:22.721Z,99.30
2019-03-24T00:50:53.833Z,98.60
2019-03-24T00:53:24.940Z,98.30
2019-03-24T00:55:56.131Z,98.20
2019-03-24T00:58:27.135Z,98.10
2019-03-24T01:00:58.163Z,97.90
2019-03-24T01:03:29.368Z,97.60
2019-03-24T01:06:01.853Z,97.60
2019-03-24T01:08:33.211Z,97.10
2019-03-24T01:11:04.436Z,96.80
2019-03-24T01:13:35.459Z,96.90
2019-03-24T01:16:06.589Z,96.80
2019-03-24T01:18:37.698Z,96.80
2019-03-24T01:21:08.963Z,96.50
2019-03-24T01:23:39.981Z,96.80
2019-03-24T01:26:11.199Z,96.70
2019-03-24T01:28:42.275Z,97.20
2019-03-24T01:31:13.424Z,97.00
2019-03-24T01:33:44.405Z,97.00
2019-03-24T01:36:15.420Z,97.10
2019-03-24T01:38:46.404Z,97.30
2019-03-24T01:41:17.379Z,97.30
2019-03-24T01:43:48.384Z,97.20
2019-03-24T01:46:19.851Z,97.10
2019-03-24T01:48:50.858Z,97.10
2019-03-24T01:51:21.987Z,97.10
2019-03-24T01:53:53.042Z,97.20
2019-03-24T01:56:24.228Z,97.70
2019-03-24T01:58:55.578Z,97.60
2019-03-24T02:01:26.714Z,97.60
2019-03-24T02:03:57.899Z,97.70
2019-03-24T02:06:28.944Z,97.80
2019-03-24T02:09:00.274Z,97.70
2019-03-24T02:11:31.318Z,97.80
2019-03-24T02:14:02.458Z,97.80
2019-03-24T02:16:33.413Z,97.90
2019-03-24T02:19:04.621Z,98.00
2019-03-24T02:21:35.679Z,98.00
2019-03-24T02:24:07.130Z,98.10
2019-03-24T02:26:38.457Z,98.20
2019-03-24T02:29:09.665Z,98.50
2019-03-24T02:31:41.333Z,98.20
2019-03-24T02:34:12.389Z,98.20
2019-03-24T02:36:43.457Z,98.40
2019-03-24T02:39:14.515Z,98.90
2019-03-24T02:41:45.638Z,98.70
2019-03-24T02:44:16.613Z,99.00
2019-03-24T02:46:47.745Z,98.90
2019-03-24T02:49:18.905Z,99.10
2019-03-24T02:51:49.957Z,99.20
2019-03-24T02:54:21.151Z,99.50
2019-03-24T02:56:52.526Z,99.50
2019-03-24T02:59:23.574Z,99.70
2019-03-24T03:01:54.787Z,99.90
2019-03-24T03:04:25.908Z,99.90
2019-03-24T03:06:57.177Z,99.90
2019-03-24T03:09:28.205Z,99.90
2019-03-24T03:11:59.217Z,99.90
2019-03-24T03:14:30.258Z,99.90
2019-03-24T03:17:01.765Z,99.90
2019-03-24T03:19:32.974Z,99.90
2019-03-24T03:22:04.029Z,99.90
2019-03-24T03:24:35.212Z,99.90
2019-03-24T03:27:06.585Z,99.90
2019-03-24T03:29:37.492Z,99.90
2019-03-24T03:32:08.610Z,99.90
2019-03-24T03:34:39.697Z,99.90
2019-03-24T03:37:10.743Z,99.90
2019-03-24T03:39:41.709Z,99.90
2019-03-24T03:42:12.859Z,99.90
2019-03-24T03:44:44.000Z,99.90
2019-03-24T03:47:15.003Z,99.90
2019-03-24T03:49:46.025Z,99.90
2019-03-24T03:52:17.112Z,99.90
2019-03-24T03:54:48.228Z,99.90
2019-03-24T03:57:19.197Z,99.90
2019-03-24T03:59:50.634Z,99.90
2019-03-24T04:02:21.609Z,99.90
2019-03-24T04:04:52.615Z,99.90
2019-03-24T04:07:23.666Z,99.90
2019-03-24T04:09:54.625Z,99.90
2019-03-24T04:12:25.590Z,99.90
2019-03-24T04:14:57.144Z,99.90
2019-03-24T04:17:28.220Z,99.90
2019-03-24T04:19:59.375Z,99.90
2019-03-24T04:22:30.520Z,99.90
2019-03-24T04:25:01.683Z,99.90
2019-03-24T04:27:32.863Z,99.90
2019-03-24T04:30:03.973Z,99.90
2019-03-24T04:32:35.173Z,99.90
2019-03-24T04:35:06.453Z,99.90
2019-03-24T04:37:37.440Z,99.90
2019-03-24T04:40:08.694Z,99.90
2019-03-24T04:42:39.875Z,99.90
2019-03-24T04:45:11.294Z,99.90
2019-03-24T04:47:42.446Z,99.90
2019-03-24T04:50:13.805Z,99.90
2019-03-24T04:52:44.792Z,99.90
2019-03-24T04:55:15.855Z,99.90
2019-03-24T04:57:46.940Z,99.90
2019-03-24T05:00:20.478Z,99.90
2019-03-24T05:02:51.469Z,99.90
2019-03-24T05:05:22.494Z,99.90
2019-03-24T05:07:53.704Z,99.90
2019-03-24T05:10:27.827Z,99.90
2019-03-24T05:12:59.225Z,99.90
2019-03-24T05:15:30.512Z,99.90
2019-03-24T05:18:01.660Z,99.90
2019-03-24T05:20:51.526Z,99.90
2019-03-24T05:23:22.679Z,99.90
2019-03-24T05:25:54.142Z,99.90
2019-03-24T05:28:25.289Z,99.90
2019-03-24T05:30:56.231Z,99.90
2019-03-24T05:33:27.361Z,99.90
2019-03-24T05:35:58.386Z,99.90
2019-03-24T05:38:30.589Z,99.90
2019-03-24T05:41:01.883Z,99.90
2019-03-24T05:43:33.181Z,99.90
2019-03-24T05:46:04.219Z,99.90
2019-03-24T05:48:35.395Z,99.90
2019-03-24T05:51:06.680Z,99.90
2019-03-24T05:53:39.223Z,99.90
2019-03-24T05:56:10.205Z,99.90
2019-03-24T05:58:41.241Z,99.90
2019-03-24T06:01:12.241Z,99.90
2019-03-24T06:03:43.343Z,99.90
2019-03-24T06:06:14.323Z,99.90
2019-03-24T06:08:45.615Z,99.90
2019-03-24T06:11:16.696Z,99.90
2019-03-24T06:13:48.009Z,99.90
2019-03-24T06:16:19.046Z,99.90
2019-03-24T06:18:50.243Z,99.90
2019-03-24T06:21:21.257Z,99.90
2019-03-24T06:23:52.440Z,99.90
2019-03-24T06:26:23.627Z,99.90
2019-03-24T06:28:54.579Z,99.90
2019-03-24T06:31:25.824Z,99.90
2019-03-24T06:33:57.054Z,99.90
2019-03-24T06:36:28.254Z,99.90
2019-03-24T06:38:59.286Z,99.90
2019-03-24T06:41:30.362Z,99.90
2019-03-24T06:44:01.686Z,99.90
2019-03-24T06:46:32.892Z,99.90
2019-03-24T06:49:04.136Z,99.90
2019-03-24T06:51:35.306Z,99.90
2019-03-24T06:54:06.414Z,99.90
2019-03-24T06:56:37.953Z,99.90
2019-03-24T06:59:09.223Z,99.90
2019-03-24T07:01:40.441Z,99.90
2019-03-24T07:04:11.694Z,99.90
2019-03-24T07:06:42.793Z,99.90
2019-03-24T07:09:13.974Z,99.90
2019-03-24T07:11:45.418Z,99.90
2019-03-24T07:14:16.830Z,99.90
2019-03-24T07:16:48.238Z,99.90
2019-03-24T07:19:19.375Z,99.90
2019-03-24T07:21:50.757Z,99.90
2019-03-24T07:24:21.897Z,99.90
2019-03-24T07:26:53.359Z,99.90
2019-03-24T07:29:24.398Z,99.90
2019-03-24T07:31:55.635Z,99.90
2019-03-24T07:34:26.774Z,99.90
2019-03-24T07:36:58.930Z,99.90
2019-03-24T07:39:30.003Z,99.40
2019-03-24T07:42:01.096Z,99.40
2019-03-24T07:44:32.182Z,99.30
2019-03-24T07:47:07.128Z,99.10
2019-03-24T07:49:38.184Z,98.80
2019-03-24T07:52:09.157Z,99.00
2019-03-24T07:54:40.183Z,98.90
2019-03-24T07:57:11.230Z,98.80
2019-03-24T07:59:42.237Z,98.60
2019-03-24T08:02:13.212Z,98.30
2019-03-24T08:04:44.282Z,98.00
2019-03-24T08:07:15.220Z,97.50
2019-03-24T08:09:46.231Z,97.50
2019-03-24T08:12:17.252Z,96.80
2019-03-24T08:14:48.260Z,96.70
2019-03-24T08:17:19.229Z,96.50
2019-03-24T08:19:50.614Z,96.40
2019-03-24T08:22:21.710Z,96.30
2019-03-24T08:24:52.688Z,96.10
2019-03-24T08:27:23.950Z,96.00
2019-03-24T08:29:55.126Z,95.80
2019-03-24T08:32:26.171Z,95.40
2019-03-24T08:34:57.491Z,95.20
2019-03-24T08:37:28.744Z,94.80
2019-03-24T08:39:59.854Z,94.90
2019-03-24T08:42:31.118Z,95.30
2019-03-24T08:45:02.366Z,94.80
2019-03-24T08:47:34.823Z,94.80
2019-03-24T08:50:06.180Z,94.30
2019-03-24T08:52:37.470Z,94.10
2019-03-24T08:55:08.610Z,93.60
2019-03-24T08:57:39.999Z,93.10
2019-03-24T09:00:11.260Z,92.00
2019-03-24T09:02:45.764Z,91.30
2019-03-24T09:05:17.091Z,91.40
2019-03-24T09:07:48.364Z,92.00
2019-03-24T09:10:20.254Z,91.90
2019-03-24T09:12:51.590Z,92.10
2019-03-24T09:15:23.108Z,92.50
2019-03-24T09:17:54.569Z,91.90
2019-03-24T09:20:25.704Z,91.20
2019-03-24T09:22:57.091Z,90.50
2019-03-24T09:25:28.263Z,90.00
2019-03-24T09:27:59.541Z,91.00
2019-03-24T09:30:38.550Z,90.80
2019-03-24T09:33:09.997Z,90.30
2019-03-24T09:35:42.686Z,86.70
2019-03-24T09:38:13.896Z,88.30
2019-03-24T09:40:44.931Z,89.10
2019-03-24T09:43:16.044Z,89.60
2019-03-24T09:45:47.482Z,90.60
2019-03-24T09:48:18.674Z,91.10
2019-03-24T09:50:49.680Z,90.90
2019-03-24T09:53:20.846Z,90.50
2019-03-24T09:55:51.937Z,90.30
2019-03-24T09:58:23.108Z,86.50
2019-03-24T10:00:54.294Z,77.60
2019-03-24T10:03:25.228Z,74.10
2019-03-24T10:05:56.718Z,75.20
2019-03-24T10:08:27.758Z,79.30
2019-03-24T10:10:59.143Z,79.60
2019-03-24T10:13:30.426Z,76.20
2019-03-24T10:16:01.449Z,71.20
2019-03-24T10:18:32.587Z,69.80
2019-03-24T10:21:03.667Z,70.40
2019-03-24T10:23:34.651Z,70.10
2019-03-24T10:26:05.908Z,71.30
2019-03-24T10:28:36.875Z,67.30
2019-03-24T10:31:07.889Z,67.40
2019-03-24T10:33:39.071Z,69.30
2019-03-24T10:36:10.377Z,70.40
2019-03-24T10:38:42.981Z,69.20
2019-03-24T10:41:14.057Z,70.10
2019-03-24T10:43:46.118Z,68.00
2019-03-24T10:46:17.128Z,66.90
2019-03-24T10:48:48.513Z,63.00
2019-03-24T10:51:19.724Z,65.90
2019-03-24T10:53:50.997Z,65.70
2019-03-24T10:56:22.295Z,66.80
2019-03-24T10:58:54.285Z,65.30
2019-03-24T11:01:25.481Z,65.10
2019-03-24T11:03:56.552Z,65.60
2019-03-24T11:06:28.994Z,67.10
2019-03-24T11:09:01.136Z,67.80
2019-03-24T11:11:33.752Z,67.30
2019-03-24T11:14:12.108Z,66.00
2019-03-24T11:16:40.912Z,66.80
2019-03-24T11:19:12.302Z,66.80
2019-03-24T11:21:43.234Z,68.00
2019-03-24T11:24:14.205Z,66.60
2019-03-24T11:26:45.401Z,67.70
2019-03-24T11:29:16.682Z,67.30
2019-03-24T11:31:47.686Z,69.00
2019-03-24T11:34:18.813Z,68.40
2019-03-24T11:36:50.028Z,67.60
2019-03-24T11:39:21.227Z,63.30
2019-03-24T11:41:52.394Z,60.10
2019-03-24T11:44:23.386Z,62.20
2019-03-24T11:46:54.634Z,63.00
2019-03-24T11:49:25.641Z,64.90
2019-03-24T11:51:56.785Z,66.90
2019-03-24T11:54:27.976Z,66.20
2019-03-24T11:56:59.133Z,64.10
2019-03-24T11:59:30.196Z,62.70
2019-03-24T12:02:01.454Z,63.70
2019-03-24T12:04:32.527Z,64.20
2019-03-24T12:07:03.692Z,64.60
2019-03-24T12:09:34.890Z,62.90
2019-03-24T12:12:06.240Z,61.40
2019-03-24T12:14:38.156Z,61.60
2019-03-24T12:17:09.403Z,60.00
2019-03-24T12:19:40.517Z,59.70
2019-03-24T12:22:11.488Z,58.60
2019-03-24T12:24:42.725Z,58.90
2019-03-24T12:27:14.001Z,58.20
2019-03-24T12:29:45.397Z,56.50
2019-03-24T12:32:18.621Z,56.80
2019-03-24T12:34:50.703Z,56.60
2019-03-24T12:37:21.814Z,57.80
2019-03-24T12:39:52.812Z,59.40
2019-03-24T12:42:23.898Z,60.00
2019-03-24T12:44:55.060Z,58.20
2019-03-24T12:47:26.242Z,58.70
2019-03-24T12:50:07.963Z,58.50
2019-03-24T12:52:30.371Z,58.10
2019-03-24T12:55:01.484Z,59.20
2019-03-24T12:57:33.856Z,60.70
2019-03-24T13:00:05.862Z,60.40
2019-03-24T13:02:37.558Z,61.30
2019-03-24T13:05:11.171Z,60.90
2019-03-24T13:07:44.606Z,60.60
2019-03-24T13:10:15.958Z,58.60
2019-03-24T13:12:47.372Z,57.70
2019-03-24T13:15:18.541Z,58.20
2019-03-24T13:17:51.028Z,58.90
2019-03-24T13:20:36.619Z,59.70
2019-03-24T13:22:55.254Z,59.80
2019-03-24T13:25:26.462Z,60.50
2019-03-24T13:27:57.716Z,59.20
2019-03-24T13:30:28.791Z,59.40
2019-03-24T13:32:59.998Z,60.10
2019-03-24T13:35:31.253Z,61.00
2019-03-24T13:38:02.475Z,60.50
2019-03-24T13:40:33.749Z,60.40
2019-03-24T13:43:04.791Z,60.00
2019-03-24T13:45:35.922Z,59.10
2019-03-24T13:48:07.381Z,58.20
2019-03-24T13:50:38.438Z,58.50
2019-03-24T13:53:09.461Z,59.10
2019-03-24T13:55:41.049Z,61.80
2019-03-24T13:58:12.364Z,59.60
2019-03-24T14:00:43.833Z,57.20
2019-03-24T14:03:16.160Z,56.90
2019-03-24T14:05:48.317Z,55.70
2019-03-24T14:08:19.362Z,55.80
2019-03-24T14:10:50.403Z,56.30
2019-03-24T14:13:21.778Z,55.40
2019-03-24T14:15:52.935Z,55.80
2019-03-24T14:18:24.060Z,56.30
2019-03-24T14:20:55.462Z,57.10
2019-03-24T14:23:26.748Z,61.90
2019-03-24T14:25:58.058Z,61.40
2019-03-24T14:28:29.460Z,59.90
2019-03-24T14:31:00.618Z,59.10
2019-03-24T14:33:31.892Z,57.90
2019-03-24T14:36:03.255Z,56.90
2019-03-24T14:38:35.126Z,58.60
2019-03-24T14:41:07.260Z,58.50
2019-03-24T14:43:38.618Z,58.60
2019-03-24T14:46:09.946Z,57.30
2019-03-24T14:48:41.209Z,56.70
2019-03-24T14:51:12.393Z,57.20
2019-03-24T14:53:43.614Z,58.50
2019-03-24T14:56:14.830Z,60.00
2019-03-24T14:58:46.222Z,60.60
2019-03-24T15:01:18.145Z,60.60
2019-03-24T15:03:49.420Z,61.10
2019-03-24T15:06:20.559Z,60.20
2019-03-24T15:08:51.887Z,58.90
2019-03-24T15:11:25.789Z,58.30
2019-03-24T15:13:57.471Z,57.80
2019-03-24T15:16:29.235Z,57.60
2019-03-24T15:19:02.143Z,57.50
2019-03-24T15:21:33.365Z,57.10
2019-03-24T15:24:05.645Z,57.20
2019-03-24T15:26:37.425Z,57.90
2019-03-24T15:29:08.607Z,57.90
2019-03-24T15:31:40.163Z,57.70
2019-03-24T15:34:12.808Z,57.40
2019-03-24T15:36:44.220Z,58.10
2019-03-24T15:39:15.584Z,58.00
2019-03-24T15:41:47.446Z,58.50
2019-03-24T15:44:18.926Z,59.30
2019-03-24T15:46:50.150Z,59.80
2019-03-24T15:49:21.636Z,59.60
2019-03-24T15:51:53.134Z,59.70
2019-03-24T15:54:25.030Z,59.60
2019-03-24T15:56:56.420Z,59.70
2019-03-24T15:59:29.154Z,60.00
2019-03-24T16:02:00.494Z,60.20
2019-03-24T16:04:32.214Z,60.60
2019-03-24T16:07:03.518Z,61.30
2019-03-24T16:09:35.762Z,60.70
2019-03-24T16:12:08.370Z,60.60
2019-03-24T16:14:39.744Z,60.80
2019-03-24T16:17:11.436Z,61.90
2019-03-24T16:19:46.539Z,61.90
2019-03-24T16:22:19.487Z,62.20
2019-03-24T16:24:51.041Z,62.00
2019-03-24T16:27:22.954Z,62.00
2019-03-24T16:29:54.255Z,61.90
2019-03-24T16:32:26.883Z,62.70
2019-03-24T16:34:58.819Z,63.10
2019-03-24T16:37:30.172Z,63.10
2019-03-24T16:40:01.271Z,63.50
2019-03-24T16:42:32.839Z,64.10
2019-03-24T16:45:05.147Z,64.00
2019-03-24T16:47:38.237Z,64.50
2019-03-24T16:50:12.687Z,65.20
2019-03-24T16:52:45.559Z,66.10
2019-03-24T16:55:17.785Z,66.40
2019-03-24T16:57:49.923Z,67.40
2019-03-24T17:00:21.651Z,68.00
2019-03-24T17:02:54.070Z,68.70
2019-03-24T17:05:26.737Z,69.30
2019-03-24T17:07:57.933Z,70.50
2019-03-24T17:10:29.438Z,71.20
2019-03-24T17:13:00.666Z,71.20
2019-03-24T17:15:32.222Z,72.40
2019-03-24T17:18:03.395Z,72.30
2019-03-24T17:20:34.482Z,73.30
2019-03-24T17:23:05.818Z,73.60
2019-03-24T17:25:36.976Z,74.90
2019-03-24T17:28:08.733Z,74.60
2019-03-24T17:30:40.189Z,75.60
2019-03-24T17:33:12.138Z,75.90
2019-03-24T17:35:43.568Z,77.20
2019-03-24T17:38:14.992Z,76.30
2019-03-24T17:40:46.198Z,78.00
2019-03-24T17:43:17.652Z,77.00
2019-03-24T17:45:48.900Z,76.60
2019-03-24T17:48:20.443Z,76.60
2019-03-24T17:50:51.671Z,77.70
2019-03-24T17:53:22.817Z,77.40
2019-03-24T17:55:53.983Z,78.50
2019-03-24T17:58:25.030Z,81.40
2019-03-24T18:00:57.634Z,81.20
2019-03-24T18:03:28.804Z,79.60
2019-03-24T18:05:59.961Z,79.20
2019-03-24T18:08:31.005Z,79.50
2019-03-24T18:11:02.213Z,83.00
2019-03-24T18:13:33.197Z,83.30
2019-03-24T18:16:04.393Z,80.80
2019-03-24T18:18:35.411Z,82.50
2019-03-24T18:21:06.613Z,84.00
2019-03-24T18:23:37.975Z,80.80
2019-03-24T18:26:09.489Z,80.70
2019-03-24T18:28:41.196Z,80.60
2019-03-24T18:31:13.503Z,81.30
2019-03-24T18:33:44.794Z,84.90
2019-03-24T18:36:15.961Z,85.70
2019-03-24T18:38:47.440Z,82.90
2019-03-24T18:41:18.611Z,82.80
2019-03-24T18:43:49.662Z,85.30
2019-03-24T18:46:21.288Z,86.70
2019-03-24T18:48:52.816Z,85.30
2019-03-24T18:51:24.464Z,85.40
2019-03-24T18:53:56.666Z,85.40
2019-03-24T18:56:28.014Z,85.50
2019-03-24T18:58:59.484Z,88.90
2019-03-24T19:01:30.717Z,88.40
2019-03-24T19:04:01.816Z,87.70
2019-03-24T19:06:33.081Z,87.40
2019-03-24T19:09:05.073Z,89.10
2019-03-24T19:11:37.822Z,90.80
2019-03-24T19:14:09.887Z,90.70
2019-03-24T19:16:41.812Z,90.60
2019-03-24T19:19:13.368Z,91.00
2019-03-24T19:21:47.068Z,90.00
2019-03-24T19:24:18.440Z,92.20
2019-03-24T19:26:50.441Z,92.70
2019-03-24T19:29:23.396Z,91.80
2019-03-24T19:31:54.957Z,91.10
2019-03-24T19:34:26.510Z,91.60
2019-03-24T19:36:59.252Z,92.20
2019-03-24T19:39:31.643Z,92.30
2019-03-24T19:42:03.341Z,91.90
2019-03-24T19:44:36.235Z,91.50
2019-03-24T19:47:08.053Z,91.50
2019-03-24T19:49:39.845Z,92.60
2019-03-24T19:52:11.243Z,91.90
2019-03-24T19:54:42.431Z,92.90
2019-03-24T19:57:14.271Z,93.10
2019-03-24T19:59:46.029Z,93.90
2019-03-24T20:02:17.335Z,93.10
2019-03-24T20:04:48.933Z,92.30
2019-03-24T20:07:20.281Z,93.10
2019-03-24T20:09:52.065Z,92.90
2019-03-24T20:12:23.971Z,92.30
2019-03-24T20:14:55.584Z,92.80
2019-03-24T20:17:28.251Z,92.80
2019-03-24T20:19:59.578Z,93.20
2019-03-24T20:22:30.687Z,92.90
2019-03-24T20:25:02.935Z,92.40
2019-03-24T20:27:34.428Z,93.00
2019-03-24T20:30:08.077Z,93.70
2019-03-24T20:32:39.968Z,94.00
2019-03-24T20:35:11.502Z,93.30
2019-03-24T20:37:42.648Z,94.60
2019-03-24T20:40:14.509Z,94.50
2019-03-24T20:42:45.652Z,94.20
2019-03-24T20:45:17.120Z,93.30
2019-03-24T20:47:49.167Z,93.40
2019-03-24T20:50:22.611Z,93.90
2019-03-24T20:53:03.742Z,94.60
2019-03-24T20:55:27.289Z,94.00
2019-03-24T20:57:59.295Z,94.30
2019-03-24T21:00:34.463Z,94.40
2019-03-24T21:03:10.080Z,94.60
2019-03-24T21:05:42.371Z,94.10
2019-03-24T21:08:13.557Z,94.20
2019-03-24T21:10:45.040Z,94.10
2019-03-24T21:13:16.189Z,93.90
2019-03-24T21:15:47.432Z,94.30
2019-03-24T21:18:18.995Z,94.30
2019-03-24T21:20:49.992Z,94.60
2019-03-24T21:23:29.604Z,94.60
2019-03-24T21:25:55.581Z,94.60
2019-03-24T21:28:26.681Z,94.80
2019-03-24T21:30:57.852Z,95.00
2019-03-24T21:33:28.939Z,94.90
2019-03-24T21:36:00.167Z,95.00
2019-03-24T21:38:31.557Z,95.40
2019-03-24T21:41:03.302Z,95.70
2019-03-24T21:43:34.568Z,95.30
2019-03-24T21:46:06.267Z,95.40
2019-03-24T21:48:38.011Z,95.50
2019-03-24T21:51:09.078Z,94.30
2019-03-24T21:53:41.049Z,94.20
2019-03-24T21:56:14.169Z,94.10
2019-03-24T21:58:44.984Z,94.20
2019-03-24T22:01:15.943Z,95.90
2019-03-24T22:03:47.107Z,95.80
2019-03-24T22:06:19.479Z,96.10
2019-03-24T22:08:50.758Z,96.70
2019-03-24T22:11:22.116Z,96.80
2019-03-24T22:13:53.594Z,97.10
2019-03-24T22:16:25.106Z,97.50
2019-03-24T22:18:56.338Z,98.10
2019-03-24T22:21:27.530Z,98.30
2019-03-24T22:23:58.792Z,98.60
2019-03-24T22:26:29.865Z,99.00
2019-03-24T22:29:00.957Z,99.30
2019-03-24T22:31:32.261Z,99.00
2019-03-24T22:34:03.409Z,99.20
2019-03-24T22:36:34.615Z,97.80
2019-03-24T22:39:07.710Z,97.50
2019-03-24T22:41:38.775Z,95.80
2019-03-24T22:44:09.877Z,95.80
2019-03-24T22:46:41.009Z,96.70
2019-03-24T22:49:12.059Z,95.80
2019-03-24T22:51:43.121Z,96.80
2019-03-24T22:54:14.371Z,96.90
2019-03-24T22:56:45.633Z,96.10
2019-03-24T22:59:16.789Z,96.10
2019-03-24T23:01:48.147Z,96.00
2019-03-24T23:04:19.451Z,96.30
2019-03-24T23:06:50.781Z,97.50
2019-03-24T23:09:21.913Z,97.60
2019-03-24T23:11:52.899Z,97.30
2019-03-24T23:14:23.954Z,96.80
2019-03-24T23:16:55.014Z,97.40
2019-03-24T23:19:26.341Z,97.40
2019-03-24T23:21:57.409Z,97.90
2019-03-24T23:24:28.392Z,97.10
2019-03-24T23:26:59.490Z,97.60
2019-03-24T23:29:30.592Z,97.90
2019-03-24T23:32:01.796Z,97.70
2019-03-24T23:34:32.997Z,98.20
2019-03-24T23:37:04.209Z,98.50
2019-03-24T23:39:35.363Z,98.20
2019-03-24T23:42:06.496Z,97.70
2019-03-24T23:44:37.547Z,97.00
2019-03-24T23:47:08.682Z,97.80
2019-03-24T23:49:40.768Z,98.40
2019-03-24T23:52:11.939Z,96.60
2019-03-24T23:54:43.012Z,97.00
2019-03-24T23:57:14.325Z,96.50
2019-03-24T23:59:45.737Z,97.70
